sensor_id;sensor_type;location;lat;lon;timestamp;temperature;humidity
26164;DHT22;13914;48.178;11.716;2023-07-13T00:01:12;21.40;6.60
26164;DHT22;13914;48.178;11.716;2023-07-13T00:03:38;21.30;6.70
26164;DHT22;13914;48.178;11.716;2023-07-13T00:06:06;21.30;6.50
26164;DHT22;13914;48.178;11.716;2023-07-13T00:08:33;21.30;6.70
26164;DHT22;13914;48.178;11.716;2023-07-13T00:11:00;21.30;6.80
26164;DHT22;13914;48.178;11.716;2023-07-13T00:13:26;21.30;6.80
26164;DHT22;13914;48.178;11.716;2023-07-13T00:15:52;21.30;6.70
26164;DHT22;13914;48.178;11.716;2023-07-13T00:18:19;21.20;6.60
26164;DHT22;13914;48.178;11.716;2023-07-13T00:20:45;21.20;6.80
26164;DHT22;13914;48.178;11.716;2023-07-13T00:23:11;21.20;7.00
26164;DHT22;13914;48.178;11.716;2023-07-13T00:25:37;21.20;6.80
26164;DHT22;13914;48.178;11.716;2023-07-13T00:28:02;21.10;6.80
26164;DHT22;13914;48.178;11.716;2023-07-13T00:30:28;21.10;6.80
26164;DHT22;13914;48.178;11.716;2023-07-13T00:32:54;21.10;6.80
26164;DHT22;13914;48.178;11.716;2023-07-13T00:35:19;21.10;6.80
26164;DHT22;13914;48.178;11.716;2023-07-13T00:37:45;21.00;6.80
26164;DHT22;13914;48.178;11.716;2023-07-13T00:40:12;21.00;6.90
26164;DHT22;13914;48.178;11.716;2023-07-13T00:42:38;21.00;7.00
26164;DHT22;13914;48.178;11.716;2023-07-13T00:45:05;21.00;7.10
26164;DHT22;13914;48.178;11.716;2023-07-13T00:47:52;21.00;7.00
26164;DHT22;13914;48.178;11.716;2023-07-13T00:50:17;21.00;7.00
26164;DHT22;13914;48.178;11.716;2023-07-13T00:52:46;20.90;7.00
26164;DHT22;13914;48.178;11.716;2023-07-13T00:55:15;20.90;7.10
26164;DHT22;13914;48.178;11.716;2023-07-13T00:57:41;20.90;7.00
26164;DHT22;13914;48.178;11.716;2023-07-13T01:00:07;20.90;7.40
26164;DHT22;13914;48.178;11.716;2023-07-13T01:02:38;20.90;7.60
26164;DHT22;13914;48.178;11.716;2023-07-13T01:05:12;20.80;7.20
26164;DHT22;13914;48.178;11.716;2023-07-13T01:07:43;20.80;7.20
26164;DHT22;13914;48.178;11.716;2023-07-13T01:10:10;20.80;7.10
26164;DHT22;13914;48.178;11.716;2023-07-13T01:12:37;20.80;7.10
26164;DHT22;13914;48.178;11.716;2023-07-13T01:15:03;20.70;7.10
26164;DHT22;13914;48.178;11.716;2023-07-13T01:17:29;20.70;7.20
26164;DHT22;13914;48.178;11.716;2023-07-13T01:19:56;20.70;7.20
26164;DHT22;13914;48.178;11.716;2023-07-13T01:22:22;20.70;7.20
26164;DHT22;13914;48.178;11.716;2023-07-13T01:24:52;20.70;7.20
26164;DHT22;13914;48.178;11.716;2023-07-13T01:27:23;20.60;6.90
26164;DHT22;13914;48.178;11.716;2023-07-13T01:29:50;20.60;7.00
26164;DHT22;13914;48.178;11.716;2023-07-13T01:32:18;20.60;7.00
26164;DHT22;13914;48.178;11.716;2023-07-13T01:34:52;20.60;7.20
26164;DHT22;13914;48.178;11.716;2023-07-13T01:37:22;20.60;7.10
26164;DHT22;13914;48.178;11.716;2023-07-13T01:39:49;20.60;7.10
26164;DHT22;13914;48.178;11.716;2023-07-13T01:42:14;20.60;7.20
26164;DHT22;13914;48.178;11.716;2023-07-13T01:44:40;20.60;7.10
26164;DHT22;13914;48.178;11.716;2023-07-13T01:47:06;20.50;7.10
26164;DHT22;13914;48.178;11.716;2023-07-13T01:49:32;20.50;7.10
26164;DHT22;13914;48.178;11.716;2023-07-13T01:51:57;20.50;7.10
26164;DHT22;13914;48.178;11.716;2023-07-13T01:54:23;20.50;7.30
26164;DHT22;13914;48.178;11.716;2023-07-13T01:56:49;20.50;7.20
26164;DHT22;13914;48.178;11.716;2023-07-13T01:59:14;20.50;7.10
26164;DHT22;13914;48.178;11.716;2023-07-13T02:01:40;20.40;7.90
26164;DHT22;13914;48.178;11.716;2023-07-13T02:04:06;20.40;7.60
26164;DHT22;13914;48.178;11.716;2023-07-13T02:06:31;20.40;7.80
26164;DHT22;13914;48.178;11.716;2023-07-13T02:08:57;20.40;7.50
26164;DHT22;13914;48.178;11.716;2023-07-13T02:11:23;20.40;7.40
26164;DHT22;13914;48.178;11.716;2023-07-13T02:13:50;20.30;7.30
26164;DHT22;13914;48.178;11.716;2023-07-13T02:16:16;20.30;9.00
26164;DHT22;13914;48.178;11.716;2023-07-13T02:18:41;20.30;8.10
26164;DHT22;13914;48.178;11.716;2023-07-13T02:21:07;20.30;8.40
26164;DHT22;13914;48.178;11.716;2023-07-13T02:23:33;20.30;8.80
26164;DHT22;13914;48.178;11.716;2023-07-13T02:25:59;20.20;8.20
26164;DHT22;13914;48.178;11.716;2023-07-13T02:28:27;20.20;8.60
26164;DHT22;13914;48.178;11.716;2023-07-13T02:30:53;20.30;7.80
26164;DHT22;13914;48.178;11.716;2023-07-13T02:33:19;20.20;7.60
26164;DHT22;13914;48.178;11.716;2023-07-13T02:35:44;20.20;7.50
26164;DHT22;13914;48.178;11.716;2023-07-13T02:38:10;20.20;7.70
26164;DHT22;13914;48.178;11.716;2023-07-13T02:40:36;20.20;7.50
26164;DHT22;13914;48.178;11.716;2023-07-13T02:43:02;20.20;7.30
26164;DHT22;13914;48.178;11.716;2023-07-13T02:45:28;20.20;7.40
26164;DHT22;13914;48.178;11.716;2023-07-13T02:47:54;20.10;7.40
26164;DHT22;13914;48.178;11.716;2023-07-13T02:50:20;20.10;7.30
26164;DHT22;13914;48.178;11.716;2023-07-13T02:52:45;20.10;7.30
26164;DHT22;13914;48.178;11.716;2023-07-13T02:55:11;20.10;7.20
26164;DHT22;13914;48.178;11.716;2023-07-13T02:57:37;20.10;7.70
26164;DHT22;13914;48.178;11.716;2023-07-13T03:00:03;20.10;7.70
26164;DHT22;13914;48.178;11.716;2023-07-13T03:02:33;20.10;7.60
26164;DHT22;13914;48.178;11.716;2023-07-13T03:04:59;20.10;7.50
26164;DHT22;13914;48.178;11.716;2023-07-13T03:07:25;20.10;8.20
26164;DHT22;13914;48.178;11.716;2023-07-13T03:09:56;20.10;7.90
26164;DHT22;13914;48.178;11.716;2023-07-13T03:12:22;20.00;8.80
26164;DHT22;13914;48.178;11.716;2023-07-13T03:14:48;20.00;8.90
26164;DHT22;13914;48.178;11.716;2023-07-13T03:17:14;20.00;8.40
26164;DHT22;13914;48.178;11.716;2023-07-13T03:19:40;20.00;8.00
26164;DHT22;13914;48.178;11.716;2023-07-13T03:22:06;20.00;8.00
26164;DHT22;13914;48.178;11.716;2023-07-13T03:24:32;20.00;7.70
26164;DHT22;13914;48.178;11.716;2023-07-13T03:27:00;20.00;7.80
26164;DHT22;13914;48.178;11.716;2023-07-13T03:29:26;20.00;7.60
26164;DHT22;13914;48.178;11.716;2023-07-13T03:31:52;19.90;7.70
26164;DHT22;13914;48.178;11.716;2023-07-13T03:34:18;20.00;7.70
26164;DHT22;13914;48.178;11.716;2023-07-13T03:36:43;20.00;7.70
26164;DHT22;13914;48.178;11.716;2023-07-13T03:39:09;19.90;7.60
26164;DHT22;13914;48.178;11.716;2023-07-13T03:41:35;19.90;7.50
26164;DHT22;13914;48.178;11.716;2023-07-13T03:44:00;19.90;7.70
26164;DHT22;13914;48.178;11.716;2023-07-13T03:46:26;19.90;7.50
26164;DHT22;13914;48.178;11.716;2023-07-13T03:48:52;19.90;7.60
26164;DHT22;13914;48.178;11.716;2023-07-13T03:51:18;19.90;7.50
26164;DHT22;13914;48.178;11.716;2023-07-13T03:53:44;19.90;7.60
26164;DHT22;13914;48.178;11.716;2023-07-13T03:56:11;19.90;7.50
26164;DHT22;13914;48.178;11.716;2023-07-13T03:58:38;19.80;7.30
26164;DHT22;13914;48.178;11.716;2023-07-13T04:01:07;19.80;7.40
26164;DHT22;13914;48.178;11.716;2023-07-13T04:03:34;19.80;7.40
26164;DHT22;13914;48.178;11.716;2023-07-13T04:06:00;19.80;7.50
26164;DHT22;13914;48.178;11.716;2023-07-13T04:08:27;19.90;7.40
26164;DHT22;13914;48.178;11.716;2023-07-13T04:10:54;19.80;7.30
26164;DHT22;13914;48.178;11.716;2023-07-13T04:13:20;19.80;7.40
26164;DHT22;13914;48.178;11.716;2023-07-13T04:15:46;19.80;7.30
26164;DHT22;13914;48.178;11.716;2023-07-13T04:18:11;19.80;7.30
26164;DHT22;13914;48.178;11.716;2023-07-13T04:20:37;19.70;7.40
26164;DHT22;13914;48.178;11.716;2023-07-13T04:23:03;19.70;7.30
26164;DHT22;13914;48.178;11.716;2023-07-13T04:25:29;19.70;7.20
26164;DHT22;13914;48.178;11.716;2023-07-13T04:27:54;19.70;7.40
26164;DHT22;13914;48.178;11.716;2023-07-13T04:30:20;19.70;7.30
26164;DHT22;13914;48.178;11.716;2023-07-13T04:32:46;19.70;7.40
26164;DHT22;13914;48.178;11.716;2023-07-13T04:35:12;19.70;7.60
26164;DHT22;13914;48.178;11.716;2023-07-13T04:37:39;19.70;7.60
26164;DHT22;13914;48.178;11.716;2023-07-13T04:40:06;19.70;7.60
26164;DHT22;13914;48.178;11.716;2023-07-13T04:42:35;19.60;7.50
26164;DHT22;13914;48.178;11.716;2023-07-13T04:45:00;19.60;7.50
26164;DHT22;13914;48.178;11.716;2023-07-13T04:47:30;19.60;7.60
26164;DHT22;13914;48.178;11.716;2023-07-13T04:49:56;19.60;7.60
26164;DHT22;13914;48.178;11.716;2023-07-13T04:52:23;19.60;7.60
26164;DHT22;13914;48.178;11.716;2023-07-13T04:54:48;19.60;7.60
26164;DHT22;13914;48.178;11.716;2023-07-13T04:57:14;19.60;7.50
26164;DHT22;13914;48.178;11.716;2023-07-13T04:59:40;19.60;7.60
26164;DHT22;13914;48.178;11.716;2023-07-13T05:02:05;19.60;7.60
26164;DHT22;13914;48.178;11.716;2023-07-13T05:04:31;19.60;7.80
26164;DHT22;13914;48.178;11.716;2023-07-13T05:06:57;19.60;7.70
26164;DHT22;13914;48.178;11.716;2023-07-13T05:09:24;19.50;7.60
26164;DHT22;13914;48.178;11.716;2023-07-13T05:11:49;19.50;7.60
26164;DHT22;13914;48.178;11.716;2023-07-13T05:14:15;19.60;7.60
26164;DHT22;13914;48.178;11.716;2023-07-13T05:16:41;19.40;7.40
26164;DHT22;13914;48.178;11.716;2023-07-13T05:19:08;19.50;7.40
26164;DHT22;13914;48.178;11.716;2023-07-13T05:21:34;19.50;7.60
26164;DHT22;13914;48.178;11.716;2023-07-13T05:23:59;19.50;7.70
26164;DHT22;13914;48.178;11.716;2023-07-13T05:26:25;19.50;7.70
26164;DHT22;13914;48.178;11.716;2023-07-13T05:28:51;19.50;7.80
26164;DHT22;13914;48.178;11.716;2023-07-13T05:31:17;19.50;7.90
26164;DHT22;13914;48.178;11.716;2023-07-13T05:33:42;19.50;7.80
26164;DHT22;13914;48.178;11.716;2023-07-13T05:36:08;19.50;8.10
26164;DHT22;13914;48.178;11.716;2023-07-13T05:38:34;19.50;8.10
26164;DHT22;13914;48.178;11.716;2023-07-13T05:41:00;19.50;8.30
26164;DHT22;13914;48.178;11.716;2023-07-13T05:43:26;19.50;8.10
26164;DHT22;13914;48.178;11.716;2023-07-13T05:45:55;19.50;8.10
26164;DHT22;13914;48.178;11.716;2023-07-13T05:48:21;19.50;8.30
26164;DHT22;13914;48.178;11.716;2023-07-13T05:50:47;19.50;8.20
26164;DHT22;13914;48.178;11.716;2023-07-13T05:53:13;19.50;8.10
26164;DHT22;13914;48.178;11.716;2023-07-13T05:55:42;19.50;8.20
26164;DHT22;13914;48.178;11.716;2023-07-13T05:58:08;19.50;8.20
26164;DHT22;13914;48.178;11.716;2023-07-13T06:00:34;19.50;8.20
26164;DHT22;13914;48.178;11.716;2023-07-13T06:03:00;19.50;8.10
26164;DHT22;13914;48.178;11.716;2023-07-13T06:05:25;19.50;8.00
26164;DHT22;13914;48.178;11.716;2023-07-13T06:07:52;19.50;8.30
26164;DHT22;13914;48.178;11.716;2023-07-13T06:10:18;19.50;8.20
26164;DHT22;13914;48.178;11.716;2023-07-13T06:12:43;19.60;8.60
26164;DHT22;13914;48.178;11.716;2023-07-13T06:15:09;19.50;8.70
26164;DHT22;13914;48.178;11.716;2023-07-13T06:17:35;19.50;8.60
26164;DHT22;13914;48.178;11.716;2023-07-13T06:20:00;19.50;8.50
26164;DHT22;13914;48.178;11.716;2023-07-13T06:22:26;19.50;8.30
26164;DHT22;13914;48.178;11.716;2023-07-13T06:24:52;19.50;8.40
26164;DHT22;13914;48.178;11.716;2023-07-13T06:27:17;19.50;8.30
26164;DHT22;13914;48.178;11.716;2023-07-13T06:29:43;19.50;8.50
26164;DHT22;13914;48.178;11.716;2023-07-13T06:32:10;19.50;8.40
26164;DHT22;13914;48.178;11.716;2023-07-13T06:34:36;19.50;8.30
26164;DHT22;13914;48.178;11.716;2023-07-13T06:37:02;19.60;8.20
26164;DHT22;13914;48.178;11.716;2023-07-13T06:39:27;19.60;8.20
26164;DHT22;13914;48.178;11.716;2023-07-13T06:41:53;19.60;8.00
26164;DHT22;13914;48.178;11.716;2023-07-13T06:44:18;19.60;8.00
26164;DHT22;13914;48.178;11.716;2023-07-13T06:46:44;19.60;7.90
26164;DHT22;13914;48.178;11.716;2023-07-13T06:49:10;19.70;8.10
26164;DHT22;13914;48.178;11.716;2023-07-13T06:51:36;19.70;8.20
26164;DHT22;13914;48.178;11.716;2023-07-13T06:54:01;19.70;8.40
26164;DHT22;13914;48.178;11.716;2023-07-13T06:56:27;19.70;8.20
26164;DHT22;13914;48.178;11.716;2023-07-13T06:58:53;19.70;8.30
26164;DHT22;13914;48.178;11.716;2023-07-13T07:01:18;19.70;8.40
26164;DHT22;13914;48.178;11.716;2023-07-13T07:03:44;19.80;8.50
26164;DHT22;13914;48.178;11.716;2023-07-13T07:06:17;19.80;8.90
26164;DHT22;13914;48.178;11.716;2023-07-13T07:08:44;19.80;8.40
26164;DHT22;13914;48.178;11.716;2023-07-13T07:11:14;19.90;8.50
26164;DHT22;13914;48.178;11.716;2023-07-13T07:13:41;19.90;8.40
26164;DHT22;13914;48.178;11.716;2023-07-13T07:16:07;19.90;8.40
26164;DHT22;13914;48.178;11.716;2023-07-13T07:18:34;19.90;8.40
26164;DHT22;13914;48.178;11.716;2023-07-13T07:21:00;20.00;8.20
26164;DHT22;13914;48.178;11.716;2023-07-13T07:23:25;20.00;8.20
26164;DHT22;13914;48.178;11.716;2023-07-13T07:25:51;20.10;8.50
26164;DHT22;13914;48.178;11.716;2023-07-13T07:28:17;20.10;8.40
26164;DHT22;13914;48.178;11.716;2023-07-13T07:30:44;20.20;8.50
26164;DHT22;13914;48.178;11.716;2023-07-13T07:33:10;20.20;8.40
26164;DHT22;13914;48.178;11.716;2023-07-13T07:35:36;20.20;8.10
26164;DHT22;13914;48.178;11.716;2023-07-13T07:38:02;20.30;9.00
26164;DHT22;13914;48.178;11.716;2023-07-13T07:40:27;20.30;9.20
26164;DHT22;13914;48.178;11.716;2023-07-13T07:42:53;20.30;8.60
26164;DHT22;13914;48.178;11.716;2023-07-13T07:45:19;20.40;8.60
26164;DHT22;13914;48.178;11.716;2023-07-13T07:47:45;20.40;8.70
26164;DHT22;13914;48.178;11.716;2023-07-13T07:50:11;20.50;8.70
26164;DHT22;13914;48.178;11.716;2023-07-13T07:52:37;20.50;8.70
26164;DHT22;13914;48.178;11.716;2023-07-13T07:55:03;20.50;8.90
26164;DHT22;13914;48.178;11.716;2023-07-13T07:57:30;20.60;9.00
26164;DHT22;13914;48.178;11.716;2023-07-13T07:59:55;20.60;8.50
26164;DHT22;13914;48.178;11.716;2023-07-13T08:02:21;20.60;8.60
26164;DHT22;13914;48.178;11.716;2023-07-13T08:04:46;20.60;8.90
26164;DHT22;13914;48.178;11.716;2023-07-13T08:07:13;20.60;8.10
26164;DHT22;13914;48.178;11.716;2023-07-13T08:09:38;20.60;8.20
26164;DHT22;13914;48.178;11.716;2023-07-13T08:12:04;20.70;8.40
26164;DHT22;13914;48.178;11.716;2023-07-13T08:14:30;20.70;8.10
26164;DHT22;13914;48.178;11.716;2023-07-13T08:16:56;20.80;8.40
26164;DHT22;13914;48.178;11.716;2023-07-13T08:19:21;20.80;8.10
26164;DHT22;13914;48.178;11.716;2023-07-13T08:21:47;20.80;8.70
26164;DHT22;13914;48.178;11.716;2023-07-13T08:24:14;20.80;8.00
26164;DHT22;13914;48.178;11.716;2023-07-13T08:26:40;20.80;8.30
26164;DHT22;13914;48.178;11.716;2023-07-13T08:29:05;20.80;8.20
26164;DHT22;13914;48.178;11.716;2023-07-13T08:31:31;20.80;8.20
26164;DHT22;13914;48.178;11.716;2023-07-13T08:33:57;20.90;8.00
26164;DHT22;13914;48.178;11.716;2023-07-13T08:36:22;20.90;8.10
26164;DHT22;13914;48.178;11.716;2023-07-13T08:38:50;20.90;8.70
26164;DHT22;13914;48.178;11.716;2023-07-13T08:41:17;20.90;8.00
26164;DHT22;13914;48.178;11.716;2023-07-13T08:43:45;20.90;7.90
26164;DHT22;13914;48.178;11.716;2023-07-13T08:46:25;20.90;7.90
26164;DHT22;13914;48.178;11.716;2023-07-13T08:49:14;20.90;8.00
26164;DHT22;13914;48.178;11.716;2023-07-13T08:51:45;20.90;7.70
26164;DHT22;13914;48.178;11.716;2023-07-13T08:54:22;20.90;7.80
26164;DHT22;13914;48.178;11.716;2023-07-13T08:56:52;20.90;8.00
26164;DHT22;13914;48.178;11.716;2023-07-13T08:59:20;20.90;7.80
26164;DHT22;13914;48.178;11.716;2023-07-13T09:04:34;20.90;7.20
26164;DHT22;13914;48.178;11.716;2023-07-13T09:07:05;20.90;7.10
26164;DHT22;13914;48.178;11.716;2023-07-13T09:15:16;20.90;7.00
26164;DHT22;13914;48.178;11.716;2023-07-13T09:17:50;20.90;7.00
26164;DHT22;13914;48.178;11.716;2023-07-13T09:20:21;20.90;6.80
26164;DHT22;13914;48.178;11.716;2023-07-13T09:22:51;20.90;6.70
26164;DHT22;13914;48.178;11.716;2023-07-13T09:25:27;20.90;6.40
26164;DHT22;13914;48.178;11.716;2023-07-13T09:27:57;20.90;6.70
26164;DHT22;13914;48.178;11.716;2023-07-13T09:33:08;20.90;6.90
26164;DHT22;13914;48.178;11.716;2023-07-13T09:35:34;20.90;6.80
26164;DHT22;13914;48.178;11.716;2023-07-13T09:38:19;20.90;6.50
26164;DHT22;13914;48.178;11.716;2023-07-13T09:43:19;20.90;6.20
26164;DHT22;13914;48.178;11.716;2023-07-13T09:45:46;20.90;6.00
26164;DHT22;13914;48.178;11.716;2023-07-13T09:48:13;20.90;6.00
26164;DHT22;13914;48.178;11.716;2023-07-13T09:50:40;20.90;5.60
26164;DHT22;13914;48.178;11.716;2023-07-13T09:53:13;21.00;5.30
26164;DHT22;13914;48.178;11.716;2023-07-13T09:55:41;21.00;5.70
26164;DHT22;13914;48.178;11.716;2023-07-13T10:00:37;21.00;5.70
26164;DHT22;13914;48.178;11.716;2023-07-13T10:05:43;21.00;5.90
26164;DHT22;13914;48.178;11.716;2023-07-13T10:08:28;21.00;5.80
26164;DHT22;13914;48.178;11.716;2023-07-13T10:13:29;21.10;5.60
26164;DHT22;13914;48.178;11.716;2023-07-13T10:16:02;21.10;5.00
26164;DHT22;13914;48.178;11.716;2023-07-13T10:18:31;21.10;5.20
26164;DHT22;13914;48.178;11.716;2023-07-13T10:21:39;21.10;5.20
26164;DHT22;13914;48.178;11.716;2023-07-13T10:24:06;21.10;5.10
26164;DHT22;13914;48.178;11.716;2023-07-13T10:26:39;21.20;4.70
26164;DHT22;13914;48.178;11.716;2023-07-13T10:29:11;21.30;5.20
26164;DHT22;13914;48.178;11.716;2023-07-13T10:31:39;21.30;4.70
26164;DHT22;13914;48.178;11.716;2023-07-13T10:34:16;21.40;5.00
26164;DHT22;13914;48.178;11.716;2023-07-13T10:36:44;21.50;4.60
26164;DHT22;13914;48.178;11.716;2023-07-13T10:39:21;21.60;4.70
26164;DHT22;13914;48.178;11.716;2023-07-13T10:41:52;21.70;4.80
26164;DHT22;13914;48.178;11.716;2023-07-13T10:44:21;21.80;3.30
26164;DHT22;13914;48.178;11.716;2023-07-13T10:46:53;21.90;4.50
26164;DHT22;13914;48.178;11.716;2023-07-13T10:49:20;21.90;4.60
26164;DHT22;13914;48.178;11.716;2023-07-13T10:51:46;22.00;4.30
26164;DHT22;13914;48.178;11.716;2023-07-13T10:54:20;22.10;4.60
26164;DHT22;13914;48.178;11.716;2023-07-13T10:56:50;22.20;4.70
26164;DHT22;13914;48.178;11.716;2023-07-13T10:59:26;22.20;4.50
26164;DHT22;13914;48.178;11.716;2023-07-13T11:01:57;22.30;4.20
26164;DHT22;13914;48.178;11.716;2023-07-13T11:04:26;22.40;3.70
26164;DHT22;13914;48.178;11.716;2023-07-13T11:06:56;22.50;4.00
26164;DHT22;13914;48.178;11.716;2023-07-13T11:09:39;22.60;4.20
26164;DHT22;13914;48.178;11.716;2023-07-13T11:12:10;22.60;4.20
26164;DHT22;13914;48.178;11.716;2023-07-13T11:19:53;22.90;4.50
26164;DHT22;13914;48.178;11.716;2023-07-13T11:22:41;23.00;4.60
26164;DHT22;13914;48.178;11.716;2023-07-13T11:25:25;23.00;4.60
26164;DHT22;13914;48.178;11.716;2023-07-13T11:33:23;23.30;4.30
26164;DHT22;13914;48.178;11.716;2023-07-13T11:36:12;23.40;3.60
26164;DHT22;13914;48.178;11.716;2023-07-13T11:38:51;23.40;3.50
26164;DHT22;13914;48.178;11.716;2023-07-13T11:41:24;23.50;3.70
26164;DHT22;13914;48.178;11.716;2023-07-13T11:43:54;23.50;3.30
26164;DHT22;13914;48.178;11.716;2023-07-13T11:46:22;23.60;3.60
26164;DHT22;13914;48.178;11.716;2023-07-13T11:48:50;23.70;3.70
26164;DHT22;13914;48.178;11.716;2023-07-13T11:51:23;23.80;2.40
26164;DHT22;13914;48.178;11.716;2023-07-13T11:53:53;23.80;2.90
26164;DHT22;13914;48.178;11.716;2023-07-13T11:56:20;23.90;1.50
26164;DHT22;13914;48.178;11.716;2023-07-13T11:58:50;24.00;2.60
26164;DHT22;13914;48.178;11.716;2023-07-13T12:01:19;24.10;2.70
26164;DHT22;13914;48.178;11.716;2023-07-13T12:03:47;24.10;2.90
26164;DHT22;13914;48.178;11.716;2023-07-13T12:08:55;24.30;3.00
26164;DHT22;13914;48.178;11.716;2023-07-13T12:11:22;24.30;1.20
26164;DHT22;13914;48.178;11.716;2023-07-13T12:13:48;24.50;1.00
26164;DHT22;13914;48.178;11.716;2023-07-13T12:16:15;24.50;2.20
26164;DHT22;13914;48.178;11.716;2023-07-13T12:18:53;24.60;1.00
26164;DHT22;13914;48.178;11.716;2023-07-13T12:21:19;24.60;1.80
26164;DHT22;13914;48.178;11.716;2023-07-13T12:23:48;24.70;1.90
26164;DHT22;13914;48.178;11.716;2023-07-13T12:26:14;24.80;2.10
26164;DHT22;13914;48.178;11.716;2023-07-13T12:31:31;25.00;1.00
26164;DHT22;13914;48.178;11.716;2023-07-13T12:34:00;25.00;1.00
26164;DHT22;13914;48.178;11.716;2023-07-13T12:36:31;25.10;1.00
26164;DHT22;13914;48.178;11.716;2023-07-13T12:39:00;25.10;1.00
26164;DHT22;13914;48.178;11.716;2023-07-13T12:41:30;25.10;1.00
26164;DHT22;13914;48.178;11.716;2023-07-13T12:43:56;25.20;1.30
26164;DHT22;13914;48.178;11.716;2023-07-13T12:46:23;25.20;1.50
26164;DHT22;13914;48.178;11.716;2023-07-13T12:48:53;25.30;1.50
26164;DHT22;13914;48.178;11.716;2023-07-13T12:51:23;25.30;1.40
26164;DHT22;13914;48.178;11.716;2023-07-13T12:54:05;25.30;1.70
26164;DHT22;13914;48.178;11.716;2023-07-13T12:56:37;25.40;1.20
26164;DHT22;13914;48.178;11.716;2023-07-13T12:59:03;25.50;1.60
26164;DHT22;13914;48.178;11.716;2023-07-13T13:01:32;25.50;1.20
26164;DHT22;13914;48.178;11.716;2023-07-13T13:04:01;25.50;1.70
26164;DHT22;13914;48.178;11.716;2023-07-13T13:06:31;25.60;1.90
26164;DHT22;13914;48.178;11.716;2023-07-13T13:08:58;25.60;1.70
26164;DHT22;13914;48.178;11.716;2023-07-13T13:11:25;25.60;1.80
26164;DHT22;13914;48.178;11.716;2023-07-13T13:13:52;25.70;1.90
26164;DHT22;13914;48.178;11.716;2023-07-13T13:16:22;25.70;1.00
26164;DHT22;13914;48.178;11.716;2023-07-13T13:18:51;25.70;1.00
26164;DHT22;13914;48.178;11.716;2023-07-13T13:21:18;25.70;1.00
26164;DHT22;13914;48.178;11.716;2023-07-13T13:23:44;25.70;1.00
26164;DHT22;13914;48.178;11.716;2023-07-13T13:26:14;25.80;1.00
26164;DHT22;13914;48.178;11.716;2023-07-13T13:28:43;25.80;1.00
26164;DHT22;13914;48.178;11.716;2023-07-13T13:31:09;25.90;1.00
26164;DHT22;13914;48.178;11.716;2023-07-13T13:33:38;25.90;1.00
26164;DHT22;13914;48.178;11.716;2023-07-13T13:36:21;25.90;1.00
26164;DHT22;13914;48.178;11.716;2023-07-13T13:38:48;25.90;1.00
26164;DHT22;13914;48.178;11.716;2023-07-13T13:41:14;25.90;1.00
26164;DHT22;13914;48.178;11.716;2023-07-13T13:43:41;25.90;1.00
26164;DHT22;13914;48.178;11.716;2023-07-13T13:46:23;26.00;1.00
26164;DHT22;13914;48.178;11.716;2023-07-13T13:48:50;26.00;1.00
26164;DHT22;13914;48.178;11.716;2023-07-13T13:51:20;26.10;1.00
26164;DHT22;13914;48.178;11.716;2023-07-13T13:53:47;26.10;1.00
26164;DHT22;13914;48.178;11.716;2023-07-13T13:56:14;26.10;1.00
26164;DHT22;13914;48.178;11.716;2023-07-13T13:58:40;26.10;1.00
26164;DHT22;13914;48.178;11.716;2023-07-13T14:01:15;26.10;1.00
26164;DHT22;13914;48.178;11.716;2023-07-13T14:03:43;26.10;1.00
26164;DHT22;13914;48.178;11.716;2023-07-13T14:06:11;26.10;1.00
26164;DHT22;13914;48.178;11.716;2023-07-13T14:08:38;26.10;1.00
26164;DHT22;13914;48.178;11.716;2023-07-13T14:11:03;26.10;1.00
26164;DHT22;13914;48.178;11.716;2023-07-13T14:13:33;26.10;1.00
26164;DHT22;13914;48.178;11.716;2023-07-13T14:16:02;26.10;1.00
26164;DHT22;13914;48.178;11.716;2023-07-13T14:18:28;26.10;1.00
26164;DHT22;13914;48.178;11.716;2023-07-13T14:20:53;26.10;1.00
26164;DHT22;13914;48.178;11.716;2023-07-13T14:23:19;26.10;1.00
26164;DHT22;13914;48.178;11.716;2023-07-13T14:25:46;26.10;1.00
26164;DHT22;13914;48.178;11.716;2023-07-13T14:28:23;26.10;1.00
26164;DHT22;13914;48.178;11.716;2023-07-13T14:30:50;26.20;1.00
26164;DHT22;13914;48.178;11.716;2023-07-13T14:33:16;26.20;1.00
26164;DHT22;13914;48.178;11.716;2023-07-13T14:35:42;26.20;1.00
26164;DHT22;13914;48.178;11.716;2023-07-13T14:38:12;26.20;1.00
26164;DHT22;13914;48.178;11.716;2023-07-13T14:40:40;26.20;1.00
26164;DHT22;13914;48.178;11.716;2023-07-13T14:43:13;26.20;1.00
26164;DHT22;13914;48.178;11.716;2023-07-13T14:45:41;26.20;1.00
26164;DHT22;13914;48.178;11.716;2023-07-13T14:48:12;26.20;1.00
26164;DHT22;13914;48.178;11.716;2023-07-13T14:50:39;26.20;1.00
26164;DHT22;13914;48.178;11.716;2023-07-13T14:53:09;26.20;1.00
26164;DHT22;13914;48.178;11.716;2023-07-13T14:55:36;26.20;1.00
26164;DHT22;13914;48.178;11.716;2023-07-13T14:58:01;26.20;1.00
26164;DHT22;13914;48.178;11.716;2023-07-13T15:00:27;26.20;1.00
26164;DHT22;13914;48.178;11.716;2023-07-13T15:02:54;26.20;1.00
26164;DHT22;13914;48.178;11.716;2023-07-13T15:05:23;26.10;1.00
26164;DHT22;13914;48.178;11.716;2023-07-13T15:07:51;26.20;1.00
26164;DHT22;13914;48.178;11.716;2023-07-13T15:10:22;26.20;1.00
26164;DHT22;13914;48.178;11.716;2023-07-13T15:12:52;26.10;1.00
26164;DHT22;13914;48.178;11.716;2023-07-13T15:15:18;26.10;1.00
26164;DHT22;13914;48.178;11.716;2023-07-13T15:17:45;26.10;1.00
26164;DHT22;13914;48.178;11.716;2023-07-13T15:22:57;26.10;1.00
26164;DHT22;13914;48.178;11.716;2023-07-13T15:25:25;26.10;1.00
26164;DHT22;13914;48.178;11.716;2023-07-13T15:27:53;26.10;1.00
26164;DHT22;13914;48.178;11.716;2023-07-13T15:30:20;26.10;1.00
26164;DHT22;13914;48.178;11.716;2023-07-13T15:32:46;26.10;1.00
26164;DHT22;13914;48.178;11.716;2023-07-13T15:35:13;26.00;1.00
26164;DHT22;13914;48.178;11.716;2023-07-13T15:37:42;26.00;1.00
26164;DHT22;13914;48.178;11.716;2023-07-13T15:40:09;25.90;1.00
26164;DHT22;13914;48.178;11.716;2023-07-13T15:42:36;25.90;1.00
26164;DHT22;13914;48.178;11.716;2023-07-13T15:45:04;25.90;1.00
26164;DHT22;13914;48.178;11.716;2023-07-13T15:47:31;25.90;1.00
26164;DHT22;13914;48.178;11.716;2023-07-13T15:49:57;25.90;1.00
26164;DHT22;13914;48.178;11.716;2023-07-13T15:52:23;25.90;1.00
26164;DHT22;13914;48.178;11.716;2023-07-13T15:54:49;25.90;1.00
26164;DHT22;13914;48.178;11.716;2023-07-13T15:57:16;25.80;1.00
26164;DHT22;13914;48.178;11.716;2023-07-13T15:59:41;25.80;1.00
26164;DHT22;13914;48.178;11.716;2023-07-13T16:02:18;25.80;1.00
26164;DHT22;13914;48.178;11.716;2023-07-13T16:04:45;25.80;1.00
26164;DHT22;13914;48.178;11.716;2023-07-13T16:07:12;25.80;1.00
26164;DHT22;13914;48.178;11.716;2023-07-13T16:09:39;25.80;1.00
26164;DHT22;13914;48.178;11.716;2023-07-13T16:12:12;25.70;1.00
26164;DHT22;13914;48.178;11.716;2023-07-13T16:14:39;25.70;1.00